createdAt,value
2022-09-14T00:01:39.699Z,8.20
2022-09-14T00:04:16.199Z,7.90
2022-09-14T00:06:44.462Z,8.20
2022-09-14T00:09:19.416Z,7.90
2022-09-14T00:11:48.184Z,7.70
2022-09-14T00:14:16.254Z,7.20
2022-09-14T00:16:44.477Z,7.70
2022-09-14T00:19:24.170Z,8.30
2022-09-14T00:21:57.569Z,8.10
2022-09-14T00:24:27.366Z,8.70
2022-09-14T00:26:55.470Z,8.90
2022-09-14T00:29:25.062Z,9.00
2022-09-14T00:31:52.971Z,8.30
2022-09-14T00:34:21.305Z,9.50
2022-09-14T00:36:51.734Z,8.30
2022-09-14T00:39:23.590Z,8.50
2022-09-14T00:41:52.066Z,8.00
2022-09-14T00:44:21.059Z,8.30
2022-09-14T00:46:51.937Z,8.70
2022-09-14T00:49:30.986Z,8.70
2022-09-14T00:52:08.572Z,8.60
2022-09-14T00:54:51.948Z,8.00
2022-09-14T00:57:19.891Z,8.50
2022-09-14T00:59:50.588Z,8.90
2022-09-14T01:02:19.299Z,9.60
2022-09-14T01:04:50.854Z,8.70
2022-09-14T01:07:48.565Z,8.70
2022-09-14T01:10:34.345Z,7.80
2022-09-14T01:13:47.289Z,8.10
2022-09-14T01:16:42.667Z,8.90
2022-09-14T01:19:28.056Z,8.40
2022-09-14T01:21:56.124Z,8.60
2022-09-14T01:24:54.359Z,8.60
2022-09-14T01:27:48.796Z,8.90
2022-09-14T01:30:22.459Z,8.20
2022-09-14T01:33:19.916Z,8.40
2022-09-14T01:35:54.107Z,8.70
2022-09-14T01:38:33.925Z,8.70
2022-09-14T01:41:04.087Z,8.30
2022-09-14T01:43:48.691Z,8.90
2022-09-14T01:46:20.723Z,8.20
2022-09-14T01:48:56.114Z,8.80
2022-09-14T01:51:50.602Z,8.00
2022-09-14T01:54:24.200Z,8.50
2022-09-14T01:56:56.919Z,8.20
2022-09-14T01:59:37.092Z,8.20
2022-09-14T02:02:10.367Z,8.40
2022-09-14T02:04:48.530Z,8.20
2022-09-14T02:07:16.504Z,8.30
2022-09-14T02:09:44.376Z,8.00
2022-09-14T02:12:12.034Z,9.00
2022-09-14T02:14:39.790Z,8.60
2022-09-14T02:17:08.177Z,8.40
2022-09-14T02:19:44.031Z,8.80
2022-09-14T02:22:11.792Z,8.30
2022-09-14T02:24:39.553Z,9.10
2022-09-14T02:27:16.632Z,8.50
2022-09-14T02:29:44.503Z,7.90
2022-09-14T02:32:34.892Z,8.40
2022-09-14T02:35:17.302Z,8.20
2022-09-14T02:38:11.188Z,9.10
2022-09-14T02:41:12.535Z,9.30
2022-09-14T02:44:05.395Z,10.30
2022-09-14T02:46:45.470Z,9.90
2022-09-14T02:49:22.932Z,10.80
2022-09-14T02:52:15.682Z,10.30
2022-09-14T02:55:00.343Z,9.60
2022-09-14T02:57:28.405Z,9.90
2022-09-14T02:59:56.275Z,10.80
2022-09-14T03:02:24.633Z,10.50
2022-09-14T03:04:53.140Z,10.00
2022-09-14T03:07:20.897Z,10.70
2022-09-14T03:09:48.689Z,10.60
2022-09-14T03:12:16.533Z,9.80
2022-09-14T03:14:44.490Z,10.20
2022-09-14T03:17:12.260Z,10.00
2022-09-14T03:19:41.046Z,10.20
2022-09-14T03:22:08.881Z,9.60
2022-09-14T03:24:37.704Z,9.90
2022-09-14T03:27:05.812Z,9.60
2022-09-14T03:29:36.221Z,9.90
2022-09-14T03:32:04.381Z,9.10
2022-09-14T03:34:32.345Z,9.80
2022-09-14T03:37:00.720Z,9.50
2022-09-14T03:39:28.589Z,9.70
2022-09-14T03:41:56.550Z,9.40
2022-09-14T03:44:24.435Z,9.20
2022-09-14T03:46:52.502Z,9.00
2022-09-14T03:49:20.150Z,9.30
2022-09-14T03:51:48.233Z,9.10
2022-09-14T03:54:16.463Z,10.00
2022-09-14T03:56:44.057Z,9.90
2022-09-14T03:59:12.043Z,9.60
2022-09-14T04:01:40.354Z,9.90
2022-09-14T04:04:11.551Z,10.00
2022-09-14T04:06:39.931Z,9.80
2022-09-14T04:09:08.102Z,10.10
2022-09-14T04:11:36.173Z,10.50
2022-09-14T04:14:05.348Z,10.50
2022-09-14T04:16:33.600Z,10.20
2022-09-14T04:19:01.822Z,9.90
2022-09-14T04:21:29.880Z,9.60
2022-09-14T04:24:13.889Z,9.50
2022-09-14T04:26:44.883Z,7.90
2022-09-14T04:29:13.018Z,9.10
2022-09-14T04:31:41.263Z,8.60
2022-09-14T04:34:12.624Z,9.10
2022-09-14T04:36:40.784Z,8.60
2022-09-14T04:39:10.990Z,9.00
2022-09-14T04:41:39.144Z,8.70
2022-09-14T04:44:07.215Z,8.70
2022-09-14T04:46:36.156Z,8.90
2022-09-14T04:49:04.275Z,8.90
2022-09-14T04:51:33.789Z,8.90
2022-09-14T04:54:03.485Z,9.40
2022-09-14T04:56:34.083Z,9.10
2022-09-14T04:59:04.151Z,9.50
2022-09-14T05:01:43.876Z,8.80
2022-09-14T05:04:12.366Z,8.90
2022-09-14T05:06:41.806Z,9.90
2022-09-14T05:09:15.375Z,8.80
2022-09-14T05:11:45.395Z,8.80
2022-09-14T05:14:15.528Z,9.30
2022-09-14T05:16:46.136Z,8.90
2022-09-14T05:19:17.416Z,9.10
2022-09-14T05:21:45.967Z,8.20
2022-09-14T05:24:17.373Z,9.20
2022-09-14T05:26:45.955Z,10.20
2022-09-14T05:29:16.097Z,9.10
2022-09-14T05:31:45.009Z,8.50
2022-09-14T05:34:14.745Z,9.10
2022-09-14T05:36:43.414Z,9.30
2022-09-14T05:39:12.298Z,10.90
2022-09-14T05:41:40.608Z,10.40
2022-09-14T05:44:08.843Z,10.00
2022-09-14T05:46:36.768Z,9.90
2022-09-14T05:49:05.705Z,9.10
2022-09-14T05:51:35.445Z,10.20
2022-09-14T05:54:09.074Z,10.10
2022-09-14T05:56:37.221Z,7.60
2022-09-14T05:59:06.885Z,10.80
2022-09-14T06:01:35.071Z,10.80
2022-09-14T06:04:03.656Z,10.20
2022-09-14T06:06:32.448Z,10.50
2022-09-14T06:09:01.339Z,11.60
2022-09-14T06:11:32.447Z,10.10
2022-09-14T06:14:00.701Z,11.40
2022-09-14T06:16:30.356Z,11.50
2022-09-14T06:18:59.487Z,10.20
2022-09-14T06:21:35.557Z,10.70
2022-09-14T06:24:04.364Z,10.60
2022-09-14T06:26:32.476Z,11.90
2022-09-14T06:29:00.283Z,9.80
2022-09-14T06:31:28.623Z,11.40
2022-09-14T06:34:13.947Z,9.70
2022-09-14T06:36:49.866Z,9.20
2022-09-14T06:39:26.767Z,9.00
2022-09-14T06:41:54.697Z,7.30
2022-09-14T06:44:22.806Z,9.10
2022-09-14T06:46:50.636Z,8.70
2022-09-14T06:49:22.910Z,8.20
2022-09-14T06:51:50.977Z,7.00
2022-09-14T06:54:19.048Z,7.70
2022-09-14T06:56:47.218Z,8.10
2022-09-14T06:59:16.515Z,7.40
2022-09-14T07:01:53.185Z,6.80
2022-09-14T07:04:22.188Z,8.20
2022-09-14T07:06:51.075Z,6.60
2022-09-14T07:09:19.560Z,7.40
2022-09-14T07:11:47.735Z,7.50
2022-09-14T07:14:16.950Z,8.60
2022-09-14T07:16:45.102Z,8.30
2022-09-14T07:19:14.608Z,8.20
2022-09-14T07:21:46.058Z,7.50
2022-09-14T07:24:15.061Z,7.00
2022-09-14T07:26:43.029Z,9.20
2022-09-14T07:29:14.938Z,12.20
2022-09-14T07:31:50.204Z,8.70
2022-09-14T07:34:18.287Z,6.40
2022-09-14T07:36:46.408Z,7.10
2022-09-14T07:39:17.205Z,7.80
2022-09-14T07:41:45.393Z,6.90
2022-09-14T07:44:17.767Z,7.50
2022-09-14T07:46:46.733Z,13.70
2022-09-14T07:49:15.422Z,8.30
2022-09-14T07:51:44.044Z,9.00
2022-09-14T07:54:14.844Z,9.10
2022-09-14T07:56:43.440Z,7.20
2022-09-14T07:59:35.101Z,6.10
2022-09-14T08:02:11.721Z,8.30
2022-09-14T08:04:40.202Z,7.60
2022-09-14T08:07:08.895Z,6.40
2022-09-14T08:09:39.254Z,6.50
2022-09-14T08:12:09.088Z,5.60
2022-09-14T08:14:38.534Z,7.00
2022-09-14T08:17:12.442Z,13.30
2022-09-14T08:19:42.767Z,12.10
2022-09-14T08:22:11.144Z,10.50
2022-09-14T08:24:40.159Z,9.80
2022-09-14T08:27:09.289Z,10.30
2022-09-14T08:29:37.472Z,13.30
2022-09-14T08:32:11.113Z,16.40
2022-09-14T08:34:39.173Z,11.50
2022-09-14T08:37:07.885Z,7.10
2022-09-14T08:39:40.706Z,8.30
2022-09-14T08:42:20.186Z,8.50
2022-09-14T08:44:57.532Z,12.60
2022-09-14T08:47:34.607Z,16.30
2022-09-14T08:50:22.365Z,14.60
2022-09-14T08:52:54.809Z,10.90
2022-09-14T08:55:49.656Z,13.90
2022-09-14T08:58:54.450Z,5.10
2022-09-14T09:01:59.006Z,3.30
2022-09-14T09:04:58.775Z,3.30
2022-09-14T09:07:43.524Z,3.00
2022-09-14T09:10:13.311Z,3.60
2022-09-14T09:13:03.498Z,3.70
2022-09-14T09:15:52.135Z,2.90
2022-09-14T09:18:33.225Z,4.30
2022-09-14T09:21:14.768Z,3.30
2022-09-14T09:23:43.767Z,1.80
2022-09-14T09:26:25.584Z,2.30
2022-09-14T09:29:05.119Z,2.40
2022-09-14T09:31:56.112Z,2.30
2022-09-14T09:34:43.878Z,2.50
2022-09-14T09:37:31.573Z,1.90
2022-09-14T09:40:00.431Z,1.60
2022-09-14T09:42:30.028Z,1.60
2022-09-14T09:45:07.776Z,1.60
2022-09-14T09:47:39.786Z,2.10
2022-09-14T09:50:15.415Z,2.00
2022-09-14T09:52:52.100Z,1.70
2022-09-14T09:55:21.756Z,2.10
2022-09-14T09:57:54.332Z,1.80
2022-09-14T10:00:36.420Z,1.80
2022-09-14T10:03:06.305Z,2.10
2022-09-14T10:05:34.556Z,1.80
2022-09-14T10:08:11.251Z,2.10
2022-09-14T10:10:44.369Z,1.90
2022-09-14T10:13:38.757Z,2.10
2022-09-14T10:16:18.387Z,1.30
2022-09-14T10:18:51.849Z,2.00
2022-09-14T10:21:22.599Z,1.50
2022-09-14T10:24:19.876Z,1.80
2022-09-14T10:27:32.237Z,1.40
2022-09-14T10:30:12.390Z,1.60
2022-09-14T10:32:43.625Z,1.40
2022-09-14T10:35:55.584Z,1.40
2022-09-14T10:38:37.548Z,1.50
2022-09-14T10:41:38.908Z,1.90
2022-09-14T10:44:27.536Z,1.70
2022-09-14T10:47:16.109Z,1.80
2022-09-14T10:50:48.087Z,2.10
2022-09-14T10:53:39.107Z,1.80
2022-09-14T10:56:26.619Z,5.10
2022-09-14T10:59:09.836Z,2.50
2022-09-14T11:02:09.463Z,12.80
2022-09-14T11:04:49.714Z,3.50
2022-09-14T11:07:48.496Z,2.00
2022-09-14T11:10:46.898Z,1.90
2022-09-14T11:14:03.698Z,1.60
2022-09-14T11:17:12.106Z,3.90
2022-09-14T11:20:25.747Z,2.00
2022-09-14T11:23:37.496Z,3.20
2022-09-14T11:26:14.306Z,2.10
2022-09-14T11:29:26.018Z,4.10
2022-09-14T11:32:33.414Z,2.50
2022-09-14T11:35:36.176Z,1.60
2022-09-14T11:38:19.876Z,1.60
2022-09-14T11:40:55.026Z,2.00
2022-09-14T11:43:36.147Z,1.50
2022-09-14T11:46:35.303Z,1.50
2022-09-14T11:49:39.666Z,3.40
2022-09-14T11:52:16.058Z,2.20
2022-09-14T11:54:46.785Z,1.40
2022-09-14T11:57:20.515Z,2.70
2022-09-14T11:59:55.299Z,1.60
2022-09-14T12:02:23.413Z,1.60
2022-09-14T12:05:10.284Z,2.50
2022-09-14T12:07:47.188Z,2.40
2022-09-14T12:10:18.207Z,1.50
2022-09-14T12:13:08.089Z,1.30
2022-09-14T12:15:37.170Z,1.40
2022-09-14T12:18:08.323Z,1.60
2022-09-14T12:21:07.910Z,1.60
2022-09-14T12:23:38.359Z,1.90
2022-09-14T12:26:06.341Z,2.20
2022-09-14T12:28:35.585Z,1.50
2022-09-14T12:31:06.509Z,1.30
2022-09-14T12:33:38.529Z,1.60
2022-09-14T12:36:12.099Z,1.80
2022-09-14T12:38:52.774Z,1.70
2022-09-14T12:41:20.818Z,2.10
2022-09-14T12:43:52.463Z,1.20
2022-09-14T12:46:23.976Z,1.40
2022-09-14T12:48:59.889Z,1.80
2022-09-14T12:51:47.025Z,1.30
2022-09-14T12:54:50.545Z,1.30
2022-09-14T12:58:04.191Z,1.10
2022-09-14T13:01:21.378Z,1.10
2022-09-14T13:03:56.952Z,1.20
2022-09-14T13:06:39.983Z,1.30
2022-09-14T13:09:17.506Z,1.20
2022-09-14T13:11:45.540Z,1.20
2022-09-14T13:14:22.902Z,1.10
2022-09-14T13:16:55.172Z,1.40
2022-09-14T13:19:34.933Z,1.10
2022-09-14T13:22:03.534Z,1.50
2022-09-14T13:24:38.737Z,1.70
2022-09-14T13:27:25.431Z,1.30
2022-09-14T13:30:10.273Z,1.60
2022-09-14T13:32:43.596Z,1.30
2022-09-14T13:35:31.265Z,1.30
2022-09-14T13:38:00.949Z,1.60
2022-09-14T13:40:30.299Z,1.60
2022-09-14T13:42:59.324Z,1.50
2022-09-14T13:45:27.349Z,1.90
2022-09-14T13:47:59.013Z,2.70
2022-09-14T13:50:27.290Z,2.20
2022-09-14T13:53:04.115Z,2.00
2022-09-14T13:55:36.426Z,2.20
2022-09-14T13:58:26.149Z,2.40
2022-09-14T14:01:09.424Z,1.70
2022-09-14T14:03:58.907Z,2.20
2022-09-14T14:06:28.176Z,2.90
2022-09-14T14:09:11.323Z,3.40
2022-09-14T14:11:45.747Z,3.70
2022-09-14T14:14:18.423Z,3.70
2022-09-14T14:17:30.273Z,3.20
2022-09-14T14:20:00.714Z,3.20
2022-09-14T14:22:36.039Z,2.30
2022-09-14T14:25:19.560Z,2.30
2022-09-14T14:27:47.909Z,2.50
2022-09-14T14:30:22.050Z,2.00
2022-09-14T14:32:54.579Z,3.30
2022-09-14T14:35:30.449Z,6.90
2022-09-14T14:37:58.841Z,3.90
2022-09-14T14:40:28.222Z,4.50
2022-09-14T14:42:58.255Z,5.70
2022-09-14T14:45:27.125Z,5.70
2022-09-14T14:47:55.618Z,5.90
2022-09-14T14:50:34.345Z,5.80
2022-09-14T14:53:03.485Z,9.90
2022-09-14T14:55:31.810Z,8.90
2022-09-14T14:58:02.518Z,8.20
2022-09-14T15:00:32.563Z,8.40
2022-09-14T15:03:01.874Z,6.00
2022-09-14T15:05:35.454Z,5.10
2022-09-14T15:08:03.736Z,4.20
2022-09-14T15:10:33.413Z,3.90
2022-09-14T15:13:01.628Z,2.90
2022-09-14T15:15:29.684Z,4.20
2022-09-14T15:17:59.164Z,4.80
2022-09-14T15:20:51.334Z,4.10
2022-09-14T15:23:20.014Z,3.70
2022-09-14T15:25:52.087Z,5.40
2022-09-14T15:28:39.504Z,4.80
2022-09-14T15:31:08.643Z,4.70
2022-09-14T15:33:45.392Z,3.40
2022-09-14T15:36:14.179Z,3.50
2022-09-14T15:38:42.761Z,3.70
2022-09-14T15:41:14.918Z,4.30
2022-09-14T15:43:44.376Z,3.70
2022-09-14T15:46:13.837Z,4.10
2022-09-14T15:48:42.413Z,4.70
2022-09-14T15:51:11.594Z,4.60
2022-09-14T15:53:40.061Z,6.00
2022-09-14T15:56:12.772Z,4.00
2022-09-14T15:58:44.754Z,5.40
2022-09-14T16:01:17.528Z,5.40
2022-09-14T16:03:49.151Z,4.40
2022-09-14T16:06:17.154Z,6.70
2022-09-14T16:08:45.824Z,6.80
2022-09-14T16:11:14.094Z,6.20
2022-09-14T16:13:42.263Z,5.10
2022-09-14T16:16:16.560Z,4.60
2022-09-14T16:18:45.365Z,4.50
2022-09-14T16:21:21.801Z,6.70
2022-09-14T16:23:57.592Z,7.60
2022-09-14T16:26:30.171Z,9.50
2022-09-14T16:29:00.422Z,9.30
2022-09-14T16:31:37.490Z,9.90
2022-09-14T16:34:20.462Z,8.40
2022-09-14T16:36:50.315Z,7.90
2022-09-14T16:39:44.943Z,6.20
2022-09-14T16:42:17.286Z,7.20
2022-09-14T16:44:54.946Z,8.10
2022-09-14T16:47:29.166Z,7.70
2022-09-14T16:50:03.606Z,6.80
2022-09-14T16:52:35.092Z,6.70
2022-09-14T16:55:15.403Z,7.10
2022-09-14T16:58:08.088Z,6.10
2022-09-14T17:00:42.392Z,5.60
2022-09-14T17:03:12.304Z,4.40
2022-09-14T17:05:42.187Z,5.00
2022-09-14T17:08:10.953Z,5.80
2022-09-14T17:10:39.203Z,4.70
2022-09-14T17:13:08.186Z,5.40
2022-09-14T17:15:36.438Z,4.70
2022-09-14T17:18:06.035Z,6.80
2022-09-14T17:21:05.571Z,6.40
2022-09-14T17:23:36.797Z,9.10
2022-09-14T17:26:08.475Z,9.30
2022-09-14T17:28:36.929Z,8.90
2022-09-14T17:31:09.274Z,9.80
2022-09-14T17:33:37.648Z,9.20
2022-09-14T17:36:07.400Z,7.30
2022-09-14T17:38:40.718Z,6.00
2022-09-14T17:41:17.880Z,5.60
2022-09-14T17:43:51.900Z,7.70
2022-09-14T17:46:22.343Z,6.30
2022-09-14T17:48:51.736Z,7.90
2022-09-14T17:51:26.970Z,7.70
2022-09-14T17:53:59.488Z,5.80
2022-09-14T18:08:20.427Z,8.10
2022-09-14T19:02:33.312Z,4.50
2022-09-14T19:06:14.458Z,4.80
2022-09-14T19:10:08.721Z,4.70
2022-09-14T19:13:40.167Z,4.00
2022-09-14T19:17:14.536Z,4.40
2022-09-14T19:21:21.607Z,5.00
2022-09-14T19:25:32.459Z,4.30
2022-09-14T19:29:22.437Z,4.50
2022-09-14T19:32:44.387Z,4.50
2022-09-14T19:47:05.438Z,4.50
2022-09-14T21:00:34.069Z,7.70
2022-09-14T21:03:40.159Z,8.30
2022-09-14T21:06:43.829Z,8.70
2022-09-14T21:09:23.880Z,9.20
2022-09-14T21:11:57.980Z,9.30
2022-09-14T21:14:42.199Z,9.90
2022-09-14T21:18:09.258Z,9.40
2022-09-14T21:21:18.261Z,10.30
2022-09-14T21:24:13.949Z,10.20
2022-09-14T21:26:53.309Z,9.60
2022-09-14T21:29:40.261Z,11.30
2022-09-14T21:32:53.230Z,11.30
2022-09-14T21:35:43.550Z,9.30
2022-09-14T21:38:24.081Z,9.60
2022-09-14T21:41:11.810Z,10.10
2022-09-14T21:43:49.616Z,9.30
2022-09-14T21:46:19.709Z,9.60
2022-09-14T21:49:00.559Z,10.20
2022-09-14T21:51:46.565Z,10.20
2022-09-14T21:54:34.986Z,10.10
2022-09-14T21:57:13.250Z,10.50
2022-09-14T21:59:52.615Z,10.70
2022-09-14T22:02:25.657Z,10.10
2022-09-14T22:04:55.442Z,10.20
2022-09-14T22:07:27.456Z,9.40
2022-09-14T22:09:58.387Z,9.50
2022-09-14T22:12:32.838Z,10.10
2022-09-14T22:15:11.941Z,9.70
2022-09-14T22:17:52.001Z,10.30
2022-09-14T22:20:22.461Z,10.60
2022-09-14T22:22:51.051Z,10.00
2022-09-14T22:25:24.999Z,10.10
2022-09-14T22:27:56.162Z,10.60
2022-09-14T22:30:24.894Z,10.40
2022-09-14T22:33:00.082Z,10.30
2022-09-14T22:35:38.630Z,10.00
2022-09-14T22:38:08.301Z,9.70
2022-09-14T22:40:37.851Z,10.70
2022-09-14T22:43:09.319Z,9.90
2022-09-14T22:45:48.196Z,10.10
2022-09-14T22:48:16.680Z,10.10
2022-09-14T22:50:50.773Z,11.00
2022-09-14T22:53:23.463Z,10.80
2022-09-14T22:55:53.579Z,10.90
2022-09-14T22:58:23.321Z,10.30
2022-09-14T23:00:51.714Z,10.60
2022-09-14T23:03:23.737Z,10.80
2022-09-14T23:05:55.372Z,11.00
2022-09-14T23:08:24.488Z,11.80
2022-09-14T23:10:54.092Z,11.40
2022-09-14T23:13:23.189Z,11.80
2022-09-14T23:15:51.761Z,11.00
2022-09-14T23:18:20.191Z,11.80
2022-09-14T23:20:48.736Z,11.80
2022-09-14T23:23:17.329Z,12.20
2022-09-14T23:25:46.117Z,12.90
2022-09-14T23:28:15.104Z,11.60
2022-09-14T23:30:44.335Z,12.40
2022-09-14T23:33:12.883Z,12.30
2022-09-14T23:35:40.962Z,12.20
2022-09-14T23:38:09.624Z,12.70
2022-09-14T23:40:39.406Z,13.20
2022-09-14T23:43:08.336Z,13.00
2022-09-14T23:45:37.011Z,13.40
2022-09-14T23:48:09.812Z,12.60
2022-09-14T23:50:42.596Z,13.50
2022-09-14T23:53:15.029Z,12.60
2022-09-14T23:55:43.442Z,13.20
2022-09-14T23:58:12.335Z,13.40
